createdAt,value
2023-03-17T00:01:45.978Z,2.22
2023-03-17T00:04:13.243Z,2.25
2023-03-17T00:06:40.482Z,2.23
2023-03-17T00:09:15.774Z,2.28
2023-03-17T00:11:43.878Z,2.25
2023-03-17T00:14:10.832Z,2.22
2023-03-17T00:16:44.041Z,2.20
2023-03-17T00:19:31.847Z,2.15
2023-03-17T00:21:59.220Z,2.08
2023-03-17T00:24:25.844Z,2.05
2023-03-17T00:26:52.456Z,1.96
2023-03-17T00:29:19.090Z,1.90
2023-03-17T00:31:46.550Z,1.89
2023-03-17T00:34:18.165Z,1.77
2023-03-17T00:36:47.917Z,1.64
2023-03-17T00:41:41.794Z,1.67
2023-03-17T00:44:08.525Z,1.68
2023-03-17T00:46:36.677Z,1.77
2023-03-17T00:49:13.218Z,1.89
2023-03-17T00:51:39.895Z,1.94
2023-03-17T00:54:06.541Z,2.02
2023-03-17T00:56:33.154Z,1.99
2023-03-17T00:58:59.801Z,1.98
2023-03-17T01:01:26.284Z,1.92
2023-03-17T01:03:52.777Z,1.89
2023-03-17T01:06:19.420Z,1.88
2023-03-17T01:08:46.086Z,1.88
2023-03-17T01:11:16.001Z,1.87
2023-03-17T01:13:42.574Z,1.86
2023-03-17T01:16:11.114Z,1.81
2023-03-17T01:18:37.972Z,1.77
2023-03-17T01:21:04.849Z,1.68
2023-03-17T01:23:31.512Z,1.64
2023-03-17T01:25:58.278Z,1.63
2023-03-17T01:28:24.844Z,1.57
2023-03-17T01:30:51.424Z,1.55
2023-03-17T01:33:18.024Z,1.44
2023-03-17T01:35:44.632Z,1.48
2023-03-17T01:38:11.912Z,1.46
2023-03-17T01:40:44.323Z,1.45
2023-03-17T01:43:10.763Z,1.49
2023-03-17T01:46:14.945Z,1.49
2023-03-17T01:48:55.033Z,1.48
2023-03-17T01:51:32.545Z,1.47
2023-03-17T01:54:08.107Z,1.41
2023-03-17T01:56:36.402Z,1.33
2023-03-17T01:59:07.501Z,1.38
2023-03-17T02:01:38.703Z,1.37
2023-03-17T02:04:06.556Z,1.42
2023-03-17T02:06:34.938Z,1.37
2023-03-17T02:09:02.714Z,1.35
2023-03-17T02:11:30.433Z,1.32
2023-03-17T02:13:56.970Z,1.30
2023-03-17T02:16:23.622Z,1.30
2023-03-17T02:18:50.242Z,1.26
2023-03-17T02:21:35.452Z,1.21
2023-03-17T02:24:07.862Z,1.16
2023-03-17T02:26:36.371Z,1.21
2023-03-17T02:29:03.864Z,1.19
2023-03-17T02:31:30.541Z,1.21
2023-03-17T02:33:57.194Z,1.17
2023-03-17T02:36:24.040Z,1.20
2023-03-17T02:38:50.733Z,1.21
2023-03-17T02:41:17.636Z,1.22
2023-03-17T02:43:44.192Z,1.22
2023-03-17T02:46:10.932Z,1.15
2023-03-17T02:48:39.048Z,1.12
2023-03-17T02:51:05.873Z,1.09
2023-03-17T02:53:32.636Z,1.08
2023-03-17T02:55:59.348Z,0.99
2023-03-17T02:58:25.884Z,1.06
2023-03-17T03:00:52.461Z,1.03
2023-03-17T03:03:19.066Z,1.02
2023-03-17T03:05:45.622Z,1.02
2023-03-17T03:08:12.184Z,1.04
2023-03-17T03:10:38.815Z,0.92
2023-03-17T03:13:05.543Z,0.89
2023-03-17T03:15:32.192Z,0.92
2023-03-17T03:17:58.790Z,0.96
2023-03-17T03:20:25.456Z,0.99
2023-03-17T03:22:52.263Z,0.99
2023-03-17T03:25:18.961Z,0.99
2023-03-17T03:27:45.447Z,1.02
2023-03-17T03:30:12.388Z,0.94
2023-03-17T03:32:39.051Z,0.97
2023-03-17T03:35:06.119Z,0.98
2023-03-17T03:37:32.725Z,0.98
2023-03-17T03:39:59.274Z,0.92
2023-03-17T03:42:26.776Z,0.88
2023-03-17T03:44:53.470Z,0.95
2023-03-17T03:47:20.143Z,0.92
2023-03-17T03:49:46.746Z,0.92
2023-03-17T03:52:13.514Z,0.82
2023-03-17T03:54:40.037Z,0.82
2023-03-17T03:57:06.882Z,0.73
2023-03-17T03:59:33.488Z,0.72
2023-03-17T04:02:00.180Z,0.70
2023-03-17T04:04:26.926Z,0.66
2023-03-17T04:06:53.633Z,0.64
2023-03-17T04:09:20.391Z,0.61
2023-03-17T04:11:47.040Z,0.51
2023-03-17T04:14:13.745Z,0.53
2023-03-17T04:16:43.191Z,0.55
2023-03-17T04:19:10.239Z,0.56
2023-03-17T04:21:37.364Z,0.60
2023-03-17T04:24:04.543Z,0.59
2023-03-17T04:26:32.026Z,0.62
2023-03-17T04:28:58.675Z,0.57
2023-03-17T04:31:25.204Z,0.53
2023-03-17T04:33:51.808Z,0.50
2023-03-17T04:36:23.193Z,0.52
2023-03-17T04:38:50.201Z,0.52
2023-03-17T04:41:16.910Z,0.55
2023-03-17T04:43:43.510Z,0.49
2023-03-17T04:46:10.250Z,0.55
2023-03-17T04:48:36.766Z,0.57
2023-03-17T04:51:03.706Z,0.59
2023-03-17T04:53:30.266Z,0.62
2023-03-17T04:55:56.867Z,0.65
2023-03-17T04:58:30.709Z,0.70
2023-03-17T05:00:58.382Z,0.83
2023-03-17T05:03:27.572Z,0.89
2023-03-17T05:05:54.419Z,1.00
2023-03-17T05:08:21.143Z,1.10
2023-03-17T05:10:47.811Z,1.18
2023-03-17T05:13:14.677Z,1.52
2023-03-17T05:15:44.569Z,1.70
2023-03-17T05:18:11.100Z,1.90
2023-03-17T05:20:37.700Z,1.93
2023-03-17T05:23:04.459Z,2.18
2023-03-17T05:25:31.248Z,2.37
2023-03-17T05:27:57.833Z,2.38
2023-03-17T05:30:25.140Z,2.44
2023-03-17T05:32:51.823Z,2.73
2023-03-17T05:35:18.532Z,2.98
2023-03-17T05:37:45.535Z,3.20
2023-03-17T05:40:13.401Z,3.35
2023-03-17T05:42:40.932Z,3.45
2023-03-17T05:45:08.263Z,3.69
2023-03-17T05:47:35.186Z,3.97
2023-03-17T05:50:02.512Z,3.86
2023-03-17T05:52:29.234Z,3.86
2023-03-17T05:54:55.719Z,3.95
2023-03-17T05:57:22.815Z,3.91
2023-03-17T05:59:49.769Z,4.03
2023-03-17T06:02:16.957Z,4.41
2023-03-17T06:04:43.593Z,4.80
2023-03-17T06:07:10.392Z,5.16
2023-03-17T06:09:36.945Z,5.39
2023-03-17T06:12:03.736Z,5.54
2023-03-17T06:14:30.619Z,6.11
2023-03-17T06:16:57.159Z,6.50
2023-03-17T06:19:24.319Z,6.71
2023-03-17T06:21:50.942Z,7.08
2023-03-17T06:24:17.596Z,7.06
2023-03-17T06:26:44.440Z,7.21
2023-03-17T06:29:11.113Z,7.59
2023-03-17T06:31:38.060Z,7.65
2023-03-17T06:34:05.483Z,7.68
2023-03-17T06:36:33.092Z,7.55
2023-03-17T06:38:59.970Z,7.56
2023-03-17T06:41:27.118Z,7.92
2023-03-17T06:43:53.800Z,8.04
2023-03-17T06:46:20.406Z,8.20
2023-03-17T06:48:46.971Z,8.78
2023-03-17T06:51:16.448Z,9.07
2023-03-17T06:53:52.384Z,9.27
2023-03-17T06:56:29.574Z,9.54
2023-03-17T06:58:56.523Z,9.93
2023-03-17T07:01:23.227Z,9.73
2023-03-17T07:03:49.857Z,9.30
2023-03-17T07:06:16.713Z,9.85
2023-03-17T07:08:44.108Z,9.93
2023-03-17T07:11:16.792Z,9.73
2023-03-17T07:13:52.510Z,10.24
2023-03-17T07:16:42.310Z,10.17
2023-03-17T07:19:18.505Z,10.19
2023-03-17T07:21:58.364Z,10.79
2023-03-17T07:24:49.471Z,10.58
2023-03-17T07:27:22.754Z,10.97
2023-03-17T07:29:51.051Z,11.45
2023-03-17T07:32:17.719Z,10.91
2023-03-17T07:34:44.313Z,11.40
2023-03-17T07:37:16.490Z,11.40
2023-03-17T07:39:43.066Z,11.14
2023-03-17T07:42:16.737Z,11.81
2023-03-17T07:44:43.891Z,11.81
2023-03-17T07:47:11.591Z,12.17
2023-03-17T07:49:42.086Z,12.28
2023-03-17T07:52:11.217Z,11.31
2023-03-17T07:54:38.037Z,10.87
2023-03-17T07:57:05.797Z,11.41
2023-03-17T07:59:32.715Z,11.39
2023-03-17T08:02:00.481Z,10.65
2023-03-17T08:04:27.716Z,11.14
2023-03-17T08:06:54.526Z,11.02
2023-03-17T08:09:21.778Z,10.96
2023-03-17T08:11:48.487Z,10.69
2023-03-17T08:14:15.208Z,10.28
2023-03-17T08:16:41.942Z,9.99
2023-03-17T08:19:10.020Z,9.97
2023-03-17T08:21:36.679Z,9.57
2023-03-17T08:24:03.857Z,9.77
2023-03-17T08:26:30.718Z,10.55
2023-03-17T08:28:57.370Z,10.73
2023-03-17T08:31:24.094Z,10.99
2023-03-17T08:33:53.367Z,11.66
2023-03-17T08:36:20.813Z,11.98
2023-03-17T08:38:48.155Z,12.91
2023-03-17T08:41:19.312Z,12.25
2023-03-17T08:43:47.475Z,12.72
2023-03-17T08:46:20.296Z,11.82
2023-03-17T08:48:48.928Z,11.84
2023-03-17T08:51:18.957Z,11.97
2023-03-17T08:53:47.149Z,11.70
2023-03-17T08:56:14.345Z,12.09
2023-03-17T08:58:59.639Z,12.67
2023-03-17T09:01:30.443Z,12.36
2023-03-17T09:03:57.264Z,12.92
2023-03-17T09:06:24.388Z,13.83
2023-03-17T09:08:52.038Z,14.84
2023-03-17T09:11:20.212Z,14.70
2023-03-17T09:13:47.628Z,15.60
2023-03-17T09:16:15.056Z,14.88
2023-03-17T09:18:42.460Z,16.71
2023-03-17T09:21:11.782Z,15.45
2023-03-17T09:23:38.662Z,15.76
2023-03-17T09:26:05.386Z,16.68
2023-03-17T09:28:32.074Z,16.04
2023-03-17T09:30:59.794Z,16.77
2023-03-17T09:33:26.390Z,19.20
2023-03-17T09:35:53.155Z,19.39
2023-03-17T09:38:19.975Z,19.07
2023-03-17T09:40:54.606Z,19.76
2023-03-17T09:43:48.818Z,19.04
2023-03-17T09:46:54.354Z,17.25
2023-03-17T09:49:24.779Z,18.06
2023-03-17T09:51:51.503Z,20.00
2023-03-17T09:54:36.565Z,21.49
2023-03-17T09:57:27.098Z,19.44
2023-03-17T10:00:19.415Z,18.81
2023-03-17T10:02:46.499Z,19.86
2023-03-17T10:05:13.156Z,20.41
2023-03-17T10:08:03.223Z,23.26
2023-03-17T10:10:47.806Z,25.01
2023-03-17T10:13:32.470Z,24.22
2023-03-17T10:16:03.264Z,23.40
2023-03-17T10:18:55.987Z,25.41
2023-03-17T10:21:31.609Z,23.23
2023-03-17T10:23:58.902Z,19.85
2023-03-17T10:26:34.605Z,22.66
2023-03-17T10:29:10.770Z,24.73
2023-03-17T10:31:38.265Z,24.06
2023-03-17T10:34:17.150Z,24.86
2023-03-17T10:36:50.134Z,27.73
2023-03-17T10:39:27.567Z,26.05
2023-03-17T10:41:58.380Z,24.22
2023-03-17T10:44:45.618Z,23.84
2023-03-17T10:47:37.020Z,26.90
2023-03-17T10:50:24.294Z,22.55
2023-03-17T10:52:59.168Z,20.22
2023-03-17T10:55:31.754Z,21.03
2023-03-17T10:57:58.347Z,23.56
2023-03-17T11:00:28.755Z,24.44
2023-03-17T11:02:59.679Z,22.40
2023-03-17T11:05:28.742Z,23.34
2023-03-17T11:08:18.368Z,21.60
2023-03-17T11:10:45.421Z,21.57
2023-03-17T11:13:17.919Z,21.79
2023-03-17T11:16:04.197Z,23.93
2023-03-17T11:18:39.407Z,21.63
2023-03-17T11:21:18.085Z,21.69
2023-03-17T11:23:53.041Z,23.08
2023-03-17T11:26:51.738Z,24.52
2023-03-17T11:29:21.390Z,25.93
2023-03-17T11:31:53.718Z,24.77
2023-03-17T11:34:35.286Z,26.61
2023-03-17T11:37:33.931Z,21.59
2023-03-17T11:40:19.865Z,17.83
2023-03-17T11:43:08.059Z,17.34
2023-03-17T11:45:40.520Z,16.98
2023-03-17T11:48:23.616Z,15.52
2023-03-17T11:51:14.581Z,15.67
2023-03-17T11:53:50.283Z,14.94
2023-03-17T11:56:20.706Z,14.37
2023-03-17T11:58:53.386Z,13.78
2023-03-17T12:01:26.648Z,13.83
2023-03-17T12:04:14.510Z,12.92
2023-03-17T12:06:58.846Z,12.76
2023-03-17T12:09:43.578Z,12.66
2023-03-17T12:12:13.837Z,12.69
2023-03-17T12:14:47.240Z,13.10
2023-03-17T12:17:16.904Z,13.24
2023-03-17T12:19:56.363Z,13.39
2023-03-17T12:22:34.480Z,13.18
2023-03-17T12:25:33.540Z,12.13
2023-03-17T12:28:20.237Z,12.11
2023-03-17T12:31:00.260Z,11.90
2023-03-17T12:33:30.798Z,11.79
2023-03-17T12:35:59.536Z,11.29
2023-03-17T12:38:36.422Z,11.66
2023-03-17T12:41:27.612Z,11.43
2023-03-17T12:43:59.961Z,11.89
2023-03-17T12:46:43.836Z,11.93
2023-03-17T12:49:32.037Z,11.71
2023-03-17T12:52:17.549Z,11.83
2023-03-17T12:54:50.320Z,11.85
2023-03-17T12:57:29.517Z,12.06
2023-03-17T13:00:04.378Z,11.60
2023-03-17T13:02:38.911Z,11.52
2023-03-17T13:05:09.422Z,11.60
2023-03-17T13:07:41.468Z,11.62
2023-03-17T13:10:12.342Z,11.73
2023-03-17T13:12:41.805Z,11.97
2023-03-17T13:15:29.913Z,11.95
2023-03-17T13:18:14.601Z,11.70
2023-03-17T13:20:56.094Z,12.06
2023-03-17T13:23:37.592Z,11.85
2023-03-17T13:26:04.114Z,12.11
2023-03-17T13:28:33.730Z,12.37
2023-03-17T13:31:28.328Z,12.03
2023-03-17T13:34:08.286Z,11.68
2023-03-17T13:36:45.670Z,11.85
2023-03-17T13:39:32.229Z,11.67
2023-03-17T13:42:28.426Z,11.85
2023-03-17T13:45:33.979Z,11.81
2023-03-17T13:48:35.957Z,12.00
2023-03-17T13:51:08.422Z,11.97
2023-03-17T13:54:09.898Z,11.46
2023-03-17T13:56:36.549Z,11.46
2023-03-17T13:59:03.134Z,11.28
2023-03-17T14:01:36.795Z,11.03
2023-03-17T14:04:05.672Z,11.05
2023-03-17T14:06:38.206Z,10.95
2023-03-17T14:09:18.561Z,11.11
2023-03-17T14:11:47.889Z,10.90
2023-03-17T14:14:32.873Z,11.14
2023-03-17T14:17:11.997Z,11.31
2023-03-17T14:19:38.926Z,11.08
2023-03-17T14:22:23.966Z,10.96
2023-03-17T14:24:55.861Z,10.86
2023-03-17T14:27:24.551Z,10.91
2023-03-17T14:29:51.366Z,11.00
2023-03-17T14:32:20.170Z,10.97
2023-03-17T14:34:53.534Z,11.05
2023-03-17T14:37:21.752Z,11.02
2023-03-17T14:39:54.284Z,11.05
2023-03-17T14:42:30.185Z,10.90
2023-03-17T14:45:04.932Z,11.10
2023-03-17T14:47:39.701Z,11.06
2023-03-17T14:50:15.738Z,10.86
2023-03-17T14:52:42.819Z,10.85
2023-03-17T14:55:14.629Z,10.87
2023-03-17T14:57:41.251Z,10.91
2023-03-17T15:00:36.735Z,10.96
2023-03-17T15:03:19.584Z,10.89
2023-03-17T15:05:46.974Z,10.72
2023-03-17T15:08:46.242Z,10.68
2023-03-17T15:11:25.310Z,10.80
2023-03-17T15:13:56.598Z,10.90
2023-03-17T15:16:27.881Z,10.65
2023-03-17T15:19:03.043Z,10.64
2023-03-17T15:21:37.970Z,10.61
2023-03-17T15:24:19.045Z,10.65
2023-03-17T15:26:45.548Z,10.60
2023-03-17T15:29:12.134Z,10.74
2023-03-17T15:31:38.654Z,10.52
2023-03-17T15:34:05.218Z,10.61
2023-03-17T15:36:33.310Z,10.63
2023-03-17T15:39:00.671Z,10.62
2023-03-17T15:41:27.249Z,10.48
2023-03-17T15:43:53.836Z,10.50
2023-03-17T15:46:26.467Z,10.48
2023-03-17T15:48:53.681Z,10.33
2023-03-17T15:51:20.645Z,10.35
2023-03-17T15:53:47.295Z,10.24
2023-03-17T15:56:17.661Z,10.18
2023-03-17T15:58:44.954Z,10.21
2023-03-17T16:01:12.793Z,10.13
2023-03-17T16:03:40.073Z,10.06
2023-03-17T16:06:14.511Z,10.02
2023-03-17T16:08:41.041Z,10.00
2023-03-17T16:11:30.823Z,9.97
2023-03-17T16:13:58.833Z,9.88
2023-03-17T16:16:37.318Z,9.75
2023-03-17T16:19:14.088Z,9.71
2023-03-17T16:21:41.090Z,9.70
2023-03-17T16:24:16.930Z,9.71
2023-03-17T16:26:43.566Z,9.61
2023-03-17T16:29:13.655Z,9.50
2023-03-17T16:31:40.989Z,9.28
2023-03-17T16:34:22.025Z,9.21
2023-03-17T16:36:49.766Z,9.24
2023-03-17T16:39:21.508Z,9.17
2023-03-17T16:41:51.753Z,9.19
2023-03-17T16:44:20.530Z,9.14
2023-03-17T16:46:47.642Z,9.11
2023-03-17T16:49:19.580Z,9.04
2023-03-17T16:51:46.714Z,8.98
2023-03-17T16:54:14.077Z,8.93
2023-03-17T16:56:41.949Z,8.75
2023-03-17T16:59:19.872Z,8.76
2023-03-17T17:01:47.849Z,8.72
2023-03-17T17:04:14.438Z,8.75
2023-03-17T17:06:41.038Z,8.70
2023-03-17T17:09:07.640Z,8.64
2023-03-17T17:11:34.322Z,8.52
2023-03-17T17:14:00.847Z,8.56
2023-03-17T17:16:33.738Z,8.43
2023-03-17T17:19:00.353Z,8.37
2023-03-17T17:21:27.734Z,8.36
2023-03-17T17:23:55.302Z,8.31
2023-03-17T17:26:22.706Z,8.20
2023-03-17T17:28:49.830Z,8.21
2023-03-17T17:31:16.513Z,8.10
2023-03-17T17:33:43.166Z,8.09
2023-03-17T17:36:15.502Z,8.03
2023-03-17T17:38:43.043Z,7.95
2023-03-17T17:41:11.369Z,7.91
2023-03-17T17:43:38.495Z,7.87
2023-03-17T17:46:15.657Z,7.79
2023-03-17T17:48:42.300Z,7.70
2023-03-17T17:51:08.823Z,7.66
2023-03-17T17:53:35.665Z,7.72
2023-03-17T17:56:02.567Z,7.64
2023-03-17T17:58:29.257Z,7.50
2023-03-17T18:00:55.974Z,7.45
2023-03-17T18:03:26.506Z,7.43
2023-03-17T18:05:54.851Z,7.43
2023-03-17T18:08:22.534Z,7.36
2023-03-17T18:10:51.509Z,7.25
2023-03-17T18:13:18.687Z,7.22
2023-03-17T18:15:45.282Z,7.21
2023-03-17T18:18:11.856Z,7.18
2023-03-17T18:20:38.420Z,6.96
2023-03-17T18:23:05.034Z,6.97
2023-03-17T18:25:31.579Z,6.90
2023-03-17T18:27:58.581Z,6.85
2023-03-17T18:30:27.973Z,6.79
2023-03-17T18:32:58.992Z,6.80
2023-03-17T18:35:27.471Z,6.76
2023-03-17T18:37:55.718Z,6.72
2023-03-17T18:40:22.444Z,6.69
2023-03-17T18:42:48.933Z,6.55
2023-03-17T18:45:16.454Z,6.36
2023-03-17T18:47:43.086Z,6.29
2023-03-17T18:50:11.979Z,6.27
2023-03-17T18:52:39.816Z,6.23
2023-03-17T18:55:07.693Z,6.21
2023-03-17T18:57:34.546Z,6.18
2023-03-17T19:00:01.160Z,6.18
2023-03-17T19:02:27.770Z,6.08
2023-03-17T19:04:54.346Z,6.06
2023-03-17T19:07:21.018Z,6.03
2023-03-17T19:09:47.837Z,5.98
2023-03-17T19:12:14.377Z,5.94
2023-03-17T19:14:40.939Z,5.86
2023-03-17T19:17:08.248Z,5.81
2023-03-17T19:19:35.702Z,5.73
2023-03-17T19:22:03.777Z,5.76
2023-03-17T19:24:30.644Z,5.81
2023-03-17T19:26:57.208Z,5.77
2023-03-17T19:29:23.836Z,5.67
2023-03-17T19:31:50.393Z,5.57
2023-03-17T19:34:16.995Z,5.47
2023-03-17T19:36:44.223Z,5.47
2023-03-17T19:39:11.086Z,5.47
2023-03-17T19:41:37.752Z,5.36
2023-03-17T19:44:04.988Z,5.33
2023-03-17T19:46:31.638Z,5.35
2023-03-17T19:48:58.202Z,5.28
2023-03-17T19:51:26.446Z,5.18
2023-03-17T19:53:54.284Z,5.12
2023-03-17T19:56:20.929Z,5.08
2023-03-17T19:58:47.520Z,5.05
2023-03-17T20:01:14.415Z,5.05
2023-03-17T20:03:41.111Z,5.02
2023-03-17T20:06:09.195Z,5.02
2023-03-17T20:08:36.291Z,4.93
2023-03-17T20:11:03.944Z,4.95
2023-03-17T20:13:30.649Z,5.00
2023-03-17T20:15:57.205Z,4.88
2023-03-17T20:18:23.999Z,4.74
2023-03-17T20:20:54.794Z,4.78
2023-03-17T20:23:21.567Z,4.79
2023-03-17T20:25:49.066Z,4.84
2023-03-17T20:28:16.638Z,4.80
2023-03-17T20:30:44.979Z,4.80
2023-03-17T20:33:12.980Z,4.85
2023-03-17T20:35:41.222Z,4.80
2023-03-17T20:38:08.284Z,4.77
2023-03-17T20:40:35.156Z,4.72
2023-03-17T20:43:01.856Z,4.59
2023-03-17T20:45:29.062Z,4.59
2023-03-17T20:47:55.570Z,4.56
2023-03-17T20:50:23.016Z,4.48
2023-03-17T20:52:50.670Z,4.47
2023-03-17T20:55:17.576Z,4.41
2023-03-17T20:57:44.545Z,4.37
2023-03-17T21:00:21.420Z,4.34
2023-03-17T21:02:48.948Z,4.28
2023-03-17T21:05:22.800Z,4.21
2023-03-17T21:07:49.908Z,4.24
2023-03-17T21:10:17.486Z,4.20
2023-03-17T21:12:44.208Z,4.15
2023-03-17T21:15:11.668Z,4.15
2023-03-17T21:17:38.851Z,4.06
2023-03-17T21:20:11.858Z,4.01
2023-03-17T21:22:38.955Z,3.94
2023-03-17T21:25:06.134Z,3.96
2023-03-17T21:27:32.913Z,3.94
2023-03-17T21:29:59.642Z,3.94
2023-03-17T21:32:26.226Z,3.98
2023-03-17T21:34:52.822Z,3.95
2023-03-17T21:37:19.372Z,4.00
2023-03-17T21:39:45.934Z,4.01
2023-03-17T21:42:12.966Z,3.99
2023-03-17T21:44:39.671Z,4.03
2023-03-17T21:47:06.255Z,3.99
2023-03-17T21:49:32.851Z,3.93
2023-03-17T21:51:59.439Z,3.78
2023-03-17T21:54:26.210Z,3.78
2023-03-17T21:56:52.873Z,3.77
2023-03-17T21:59:19.693Z,3.66
2023-03-17T22:01:46.383Z,3.61
2023-03-17T22:04:12.900Z,3.55
2023-03-17T22:06:39.922Z,3.52
2023-03-17T22:09:07.166Z,3.48
2023-03-17T22:11:33.813Z,3.46
2023-03-17T22:14:00.355Z,3.40
2023-03-17T22:16:26.986Z,3.33
2023-03-17T22:18:53.729Z,3.25
2023-03-17T22:21:20.945Z,3.27
2023-03-17T22:23:48.307Z,3.34
2023-03-17T22:26:20.571Z,3.19
2023-03-17T22:28:49.138Z,3.15
2023-03-17T22:31:25.026Z,3.14
2023-03-17T22:33:53.934Z,3.07
2023-03-17T22:36:20.914Z,2.98
2023-03-17T22:38:47.830Z,2.93
2023-03-17T22:41:23.670Z,2.85
2023-03-17T22:43:51.144Z,2.90
2023-03-17T22:46:18.375Z,2.84
2023-03-17T22:48:46.234Z,2.73
2023-03-17T22:51:18.765Z,2.68
2023-03-17T22:53:45.898Z,2.66
2023-03-17T22:56:14.227Z,2.69
2023-03-17T22:58:41.465Z,2.74
2023-03-17T23:01:09.060Z,2.82
2023-03-17T23:03:35.842Z,2.78
2023-03-17T23:06:03.915Z,2.73
2023-03-17T23:08:31.761Z,2.68
2023-03-17T23:11:01.011Z,2.69
2023-03-17T23:13:27.904Z,2.63
2023-03-17T23:15:54.652Z,2.61
2023-03-17T23:18:21.177Z,2.65
2023-03-17T23:20:48.814Z,2.61
2023-03-17T23:23:15.545Z,2.65
2023-03-17T23:25:42.259Z,2.65
2023-03-17T23:28:09.702Z,2.64
2023-03-17T23:30:37.141Z,2.65
2023-03-17T23:33:04.908Z,2.63
2023-03-17T23:35:32.234Z,2.74
2023-03-17T23:37:59.734Z,2.74
2023-03-17T23:40:26.309Z,2.72
2023-03-17T23:42:52.914Z,2.67
2023-03-17T23:45:19.503Z,2.68
2023-03-17T23:47:47.229Z,2.68
2023-03-17T23:50:14.835Z,2.66
2023-03-17T23:52:42.580Z,2.64
2023-03-17T23:55:10.706Z,2.63
2023-03-17T23:57:38.359Z,2.59
